sensor_id;sensor_type;location;lat;lon;timestamp;pressure;altitude;pressure_sealevel;temperature;humidity
70555;BME280;58104;52.744;15.242;2023-12-22T00:00:53;97322.85;;;19.80;41.71
70555;BME280;58104;52.744;15.242;2023-12-22T00:03:18;97307.06;;;19.47;42.53
70555;BME280;58104;52.744;15.242;2023-12-22T00:05:44;97319.57;;;19.16;42.98
70555;BME280;58104;52.744;15.242;2023-12-22T00:08:09;97312.25;;;19.20;43.45
70555;BME280;58104;52.744;15.242;2023-12-22T00:10:34;97300.69;;;19.09;43.42
70555;BME280;58104;52.744;15.242;2023-12-22T00:13:00;97315.61;;;19.03;43.68
70555;BME280;58104;52.744;15.242;2023-12-22T00:15:25;97318.69;;;18.98;43.68
70555;BME280;58104;52.744;15.242;2023-12-22T00:17:50;97312.90;;;18.96;44.18
70555;BME280;58104;52.744;15.242;2023-12-22T00:20:16;97329.43;;;18.82;44.15
70555;BME280;58104;52.744;15.242;2023-12-22T00:22:41;97323.42;;;18.80;44.41
70555;BME280;58104;52.744;15.242;2023-12-22T00:25:07;97345.65;;;18.79;44.17
70555;BME280;58104;52.744;15.242;2023-12-22T00:27:32;97339.81;;;18.68;44.19
70555;BME280;58104;52.744;15.242;2023-12-22T00:29:57;97327.41;;;18.66;44.43
70555;BME280;58104;52.744;15.242;2023-12-22T00:32:23;97345.81;;;18.75;44.36
70555;BME280;58104;52.744;15.242;2023-12-22T00:34:48;97339.21;;;18.59;44.79
70555;BME280;58104;52.744;15.242;2023-12-22T00:37:13;97329.27;;;18.65;45.08
70555;BME280;58104;52.744;15.242;2023-12-22T00:39:39;97359.63;;;18.63;45.29
70555;BME280;58104;52.744;15.242;2023-12-22T00:42:04;97346.29;;;18.55;45.06
70555;BME280;58104;52.744;15.242;2023-12-22T00:44:30;97332.61;;;18.57;44.86
70555;BME280;58104;52.744;15.242;2023-12-22T00:46:55;97364.93;;;18.51;45.13
70555;BME280;58104;52.744;15.242;2023-12-22T00:49:20;97376.62;;;18.48;45.34
70555;BME280;58104;52.744;15.242;2023-12-22T00:51:46;97379.05;;;18.44;45.42
70555;BME280;58104;52.744;15.242;2023-12-22T00:54:11;97365.43;;;18.46;45.62
70555;BME280;58104;52.744;15.242;2023-12-22T00:56:37;97379.40;;;18.44;45.45
70555;BME280;58104;52.744;15.242;2023-12-22T00:59:02;97394.65;;;18.36;45.58
70555;BME280;58104;52.744;15.242;2023-12-22T01:01:27;97401.67;;;18.35;45.58
70555;BME280;58104;52.744;15.242;2023-12-22T01:03:53;97403.79;;;18.42;46.08
70555;BME280;58104;52.744;15.242;2023-12-22T01:06:18;97406.06;;;18.43;46.00
70555;BME280;58104;52.744;15.242;2023-12-22T01:08:44;97413.75;;;18.44;46.18
70555;BME280;58104;52.744;15.242;2023-12-22T01:11:09;97405.49;;;18.40;46.00
70555;BME280;58104;52.744;15.242;2023-12-22T01:13:34;97433.35;;;18.47;46.43
70555;BME280;58104;52.744;15.242;2023-12-22T01:16:00;97439.00;;;18.43;46.23
70555;BME280;58104;52.744;15.242;2023-12-22T01:18:25;97433.66;;;18.40;46.34
70555;BME280;58104;52.744;15.242;2023-12-22T01:20:51;97437.10;;;18.40;46.59
70555;BME280;58104;52.744;15.242;2023-12-22T01:23:16;97442.56;;;18.41;46.39
70555;BME280;58104;52.744;15.242;2023-12-22T01:25:41;97438.91;;;18.36;46.33
70555;BME280;58104;52.744;15.242;2023-12-22T01:28:07;97462.51;;;18.42;46.62
70555;BME280;58104;52.744;15.242;2023-12-22T01:30:32;97445.93;;;18.42;46.54
70555;BME280;58104;52.744;15.242;2023-12-22T01:32:58;97444.23;;;18.28;46.51
70555;BME280;58104;52.744;15.242;2023-12-22T01:35:23;97450.51;;;18.40;46.97
70555;BME280;58104;52.744;15.242;2023-12-22T01:37:48;97457.69;;;18.41;46.76
70555;BME280;58104;52.744;15.242;2023-12-22T01:40:14;97457.52;;;18.33;46.72
70555;BME280;58104;52.744;15.242;2023-12-22T01:42:39;97452.54;;;18.44;46.71
70555;BME280;58104;52.744;15.242;2023-12-22T01:45:06;97453.39;;;18.35;46.91
70555;BME280;58104;52.744;15.242;2023-12-22T01:47:30;97433.39;;;18.37;46.75
70555;BME280;58104;52.744;15.242;2023-12-22T01:49:55;97449.85;;;18.41;47.19
70555;BME280;58104;52.744;15.242;2023-12-22T01:52:22;97482.92;;;18.40;47.32
70555;BME280;58104;52.744;15.242;2023-12-22T01:54:46;97470.26;;;18.43;47.33
70555;BME280;58104;52.744;15.242;2023-12-22T01:57:14;97472.85;;;18.40;46.76
70555;BME280;58104;52.744;15.242;2023-12-22T01:59:37;97486.84;;;18.36;47.65
70555;BME280;58104;52.744;15.242;2023-12-22T02:02:03;97477.81;;;18.34;47.33
70555;BME280;58104;52.744;15.242;2023-12-22T02:04:28;97495.32;;;18.36;47.78
70555;BME280;58104;52.744;15.242;2023-12-22T02:06:53;97489.33;;;18.39;47.65
70555;BME280;58104;52.744;15.242;2023-12-22T02:09:18;97499.72;;;18.40;47.63
70555;BME280;58104;52.744;15.242;2023-12-22T02:11:44;97483.38;;;18.46;47.51
70555;BME280;58104;52.744;15.242;2023-12-22T02:14:10;97486.27;;;18.46;47.57
70555;BME280;58104;52.744;15.242;2023-12-22T02:16:40;97470.31;;;18.44;46.63
70555;BME280;58104;52.744;15.242;2023-12-22T02:19:08;97489.47;;;18.37;47.82
70555;BME280;58104;52.744;15.242;2023-12-22T02:21:26;97497.93;;;18.39;47.79
70555;BME280;58104;52.744;15.242;2023-12-22T02:23:51;97499.32;;;18.37;47.79
70555;BME280;58104;52.744;15.242;2023-12-22T02:26:22;97498.80;;;18.39;47.78
70555;BME280;58104;52.744;15.242;2023-12-22T02:28:44;97495.56;;;18.40;47.67
70555;BME280;58104;52.744;15.242;2023-12-22T02:33:35;97487.82;;;18.39;47.74
70555;BME280;58104;52.744;15.242;2023-12-22T02:36:02;97494.35;;;18.37;47.99
70555;BME280;58104;52.744;15.242;2023-12-22T02:38:24;97507.86;;;18.38;48.16
70555;BME280;58104;52.744;15.242;2023-12-22T02:40:49;97517.26;;;18.34;48.26
70555;BME280;58104;52.744;15.242;2023-12-22T02:43:14;97503.36;;;18.41;48.26
70555;BME280;58104;52.744;15.242;2023-12-22T02:45:39;97505.29;;;18.32;48.18
70555;BME280;58104;52.744;15.242;2023-12-22T02:48:05;97522.19;;;18.39;48.40
70555;BME280;58104;52.744;15.242;2023-12-22T02:50:30;97531.63;;;18.36;48.48
70555;BME280;58104;52.744;15.242;2023-12-22T02:52:56;97520.53;;;18.34;48.65
70555;BME280;58104;52.744;15.242;2023-12-22T02:55:21;97523.97;;;18.34;48.59
70555;BME280;58104;52.744;15.242;2023-12-22T02:57:46;97541.97;;;18.24;48.66
70555;BME280;58104;52.744;15.242;2023-12-22T03:00:12;97538.49;;;18.37;48.66
70555;BME280;58104;52.744;15.242;2023-12-22T03:02:37;97538.74;;;18.32;48.74
70555;BME280;58104;52.744;15.242;2023-12-22T03:05:03;97532.98;;;18.37;48.27
70555;BME280;58104;52.744;15.242;2023-12-22T03:07:28;97544.36;;;18.31;48.59
70555;BME280;58104;52.744;15.242;2023-12-22T03:09:53;97538.82;;;18.33;49.08
70555;BME280;58104;52.744;15.242;2023-12-22T03:12:20;97558.53;;;18.39;48.94
70555;BME280;58104;52.744;15.242;2023-12-22T03:14:44;97570.82;;;18.41;49.03
70555;BME280;58104;52.744;15.242;2023-12-22T03:17:10;97557.63;;;18.41;49.08
70555;BME280;58104;52.744;15.242;2023-12-22T03:19:35;97569.75;;;18.42;49.21
70555;BME280;58104;52.744;15.242;2023-12-22T03:22:00;97571.68;;;18.44;49.48
70555;BME280;58104;52.744;15.242;2023-12-22T03:24:26;97570.92;;;18.41;49.68
70555;BME280;58104;52.744;15.242;2023-12-22T03:26:51;97563.41;;;18.36;49.72
70555;BME280;58104;52.744;15.242;2023-12-22T03:29:17;97566.77;;;18.41;50.11
70555;BME280;58104;52.744;15.242;2023-12-22T03:31:42;97567.42;;;18.33;50.12
70555;BME280;58104;52.744;15.242;2023-12-22T03:34:07;97566.50;;;18.36;50.57
70555;BME280;58104;52.744;15.242;2023-12-22T03:36:33;97558.10;;;18.42;50.11
70555;BME280;58104;52.744;15.242;2023-12-22T03:38:58;97548.47;;;18.30;50.72
70555;BME280;58104;52.744;15.242;2023-12-22T03:41:23;97556.71;;;18.30;50.77
70555;BME280;58104;52.744;15.242;2023-12-22T03:43:49;97563.72;;;18.37;51.02
70555;BME280;58104;52.744;15.242;2023-12-22T03:46:14;97567.28;;;18.37;50.96
70555;BME280;58104;52.744;15.242;2023-12-22T03:48:40;97573.65;;;18.32;51.07
70555;BME280;58104;52.744;15.242;2023-12-22T03:51:05;97558.11;;;18.38;51.40
70555;BME280;58104;52.744;15.242;2023-12-22T03:53:30;97562.22;;;18.31;51.80
70555;BME280;58104;52.744;15.242;2023-12-22T03:55:56;97559.61;;;18.39;51.86
70555;BME280;58104;52.744;15.242;2023-12-22T03:58:21;97558.47;;;18.37;51.70
70555;BME280;58104;52.744;15.242;2023-12-22T04:00:47;97572.43;;;18.31;51.84
70555;BME280;58104;52.744;15.242;2023-12-22T04:03:12;97565.41;;;18.35;51.55
70555;BME280;58104;52.744;15.242;2023-12-22T04:05:37;97568.26;;;18.35;51.95
70555;BME280;58104;52.744;15.242;2023-12-22T04:08:03;97562.80;;;18.28;51.61
70555;BME280;58104;52.744;15.242;2023-12-22T04:10:28;97575.30;;;18.24;51.85
70555;BME280;58104;52.744;15.242;2023-12-22T04:12:53;97583.27;;;18.24;51.97
70555;BME280;58104;52.744;15.242;2023-12-22T04:15:19;97574.67;;;18.17;51.58
70555;BME280;58104;52.744;15.242;2023-12-22T04:17:44;97588.34;;;18.22;51.66
70555;BME280;58104;52.744;15.242;2023-12-22T04:20:10;97599.30;;;18.23;52.08
70555;BME280;58104;52.744;15.242;2023-12-22T04:22:35;97586.85;;;18.24;51.82
70555;BME280;58104;52.744;15.242;2023-12-22T04:25:00;97581.46;;;18.25;51.22
70555;BME280;58104;52.744;15.242;2023-12-22T04:27:26;97590.36;;;18.20;51.05
70555;BME280;58104;52.744;15.242;2023-12-22T04:29:51;97594.12;;;18.15;51.87
70555;BME280;58104;52.744;15.242;2023-12-22T04:32:17;97599.94;;;18.15;51.99
70555;BME280;58104;52.744;15.242;2023-12-22T04:34:42;97606.59;;;18.09;51.56
70555;BME280;58104;52.744;15.242;2023-12-22T04:37:07;97596.54;;;18.12;51.33
70555;BME280;58104;52.744;15.242;2023-12-22T04:39:33;97597.01;;;18.11;51.52
70555;BME280;58104;52.744;15.242;2023-12-22T04:41:58;97598.61;;;18.11;51.46
70555;BME280;58104;52.744;15.242;2023-12-22T04:44:24;97600.61;;;18.16;51.70
70555;BME280;58104;52.744;15.242;2023-12-22T04:46:49;97603.56;;;18.10;51.58
70555;BME280;58104;52.744;15.242;2023-12-22T04:49:14;97592.72;;;18.13;52.23
70555;BME280;58104;52.744;15.242;2023-12-22T04:51:40;97587.32;;;18.12;52.59
70555;BME280;58104;52.744;15.242;2023-12-22T04:54:05;97596.73;;;18.12;52.20
70555;BME280;58104;52.744;15.242;2023-12-22T04:56:31;97579.85;;;18.16;52.63
70555;BME280;58104;52.744;15.242;2023-12-22T04:58:56;97587.47;;;18.14;52.14
70555;BME280;58104;52.744;15.242;2023-12-22T05:01:21;97589.16;;;18.12;52.64
70555;BME280;58104;52.744;15.242;2023-12-22T05:03:47;97564.41;;;18.15;52.42
70555;BME280;58104;52.744;15.242;2023-12-22T05:06:12;97561.79;;;18.10;52.43
70555;BME280;58104;52.744;15.242;2023-12-22T05:08:38;97554.25;;;18.13;52.52
70555;BME280;58104;52.744;15.242;2023-12-22T05:11:03;97559.95;;;18.10;52.27
70555;BME280;58104;52.744;15.242;2023-12-22T05:13:28;97577.76;;;18.07;52.63
70555;BME280;58104;52.744;15.242;2023-12-22T05:15:55;97560.67;;;18.13;52.95
70555;BME280;58104;52.744;15.242;2023-12-22T05:18:20;97550.06;;;18.14;52.73
70555;BME280;58104;52.744;15.242;2023-12-22T05:20:44;97535.62;;;18.13;52.63
70555;BME280;58104;52.744;15.242;2023-12-22T05:23:10;97546.65;;;18.11;52.47
70555;BME280;58104;52.744;15.242;2023-12-22T05:25:35;97543.69;;;18.03;52.40
70555;BME280;58104;52.744;15.242;2023-12-22T05:28:01;97534.94;;;18.02;52.22
70555;BME280;58104;52.744;15.242;2023-12-22T05:30:27;97531.41;;;18.05;52.16
70555;BME280;58104;52.744;15.242;2023-12-22T05:32:51;97529.57;;;18.07;52.22
70555;BME280;58104;52.744;15.242;2023-12-22T05:35:17;97525.68;;;18.05;52.05
70555;BME280;58104;52.744;15.242;2023-12-22T05:37:42;97519.76;;;18.05;52.33
70555;BME280;58104;52.744;15.242;2023-12-22T05:40:08;97521.31;;;18.08;52.54
70555;BME280;58104;52.744;15.242;2023-12-22T05:42:33;97486.12;;;18.05;52.53
70555;BME280;58104;52.744;15.242;2023-12-22T05:44:58;97522.64;;;18.07;51.78
70555;BME280;58104;52.744;15.242;2023-12-22T05:47:24;97524.73;;;17.98;52.46
70555;BME280;58104;52.744;15.242;2023-12-22T05:49:50;97515.29;;;18.00;52.12
70555;BME280;58104;52.744;15.242;2023-12-22T05:52:15;97530.63;;;18.01;52.41
70555;BME280;58104;52.744;15.242;2023-12-22T05:54:40;97533.07;;;18.08;52.44
70555;BME280;58104;52.744;15.242;2023-12-22T05:57:05;97528.20;;;18.04;52.37
70555;BME280;58104;52.744;15.242;2023-12-22T05:59:31;97515.77;;;18.00;52.05
70555;BME280;58104;52.744;15.242;2023-12-22T06:01:56;97519.00;;;17.97;52.76
70555;BME280;58104;52.744;15.242;2023-12-22T06:04:21;97512.35;;;17.99;52.83
70555;BME280;58104;52.744;15.242;2023-12-22T06:06:48;97500.64;;;17.98;52.91
70555;BME280;58104;52.744;15.242;2023-12-22T06:09:12;97519.36;;;18.01;52.93
70555;BME280;58104;52.744;15.242;2023-12-22T06:11:38;97522.32;;;18.00;53.01
70555;BME280;58104;52.744;15.242;2023-12-22T06:14:03;97493.45;;;17.97;52.74
70555;BME280;58104;52.744;15.242;2023-12-22T06:16:28;97507.02;;;17.91;52.59
70555;BME280;58104;52.744;15.242;2023-12-22T06:21:19;97524.70;;;17.96;52.72
70555;BME280;58104;52.744;15.242;2023-12-22T06:23:45;97538.33;;;18.05;53.21
70555;BME280;58104;52.744;15.242;2023-12-22T06:26:11;97521.87;;;18.03;53.60
70555;BME280;58104;52.744;15.242;2023-12-22T06:31:01;97525.91;;;18.00;53.00
70555;BME280;58104;52.744;15.242;2023-12-22T06:33:27;97518.00;;;18.07;53.42
70555;BME280;58104;52.744;15.242;2023-12-22T06:35:52;97534.45;;;18.06;53.25
70555;BME280;58104;52.744;15.242;2023-12-22T06:38:17;97545.41;;;18.07;53.48
70555;BME280;58104;52.744;15.242;2023-12-22T06:40:42;97564.57;;;18.09;53.44
70555;BME280;58104;52.744;15.242;2023-12-22T06:43:08;97550.96;;;18.10;53.56
70555;BME280;58104;52.744;15.242;2023-12-22T06:45:33;97543.76;;;18.17;54.93
70555;BME280;58104;52.744;15.242;2023-12-22T06:47:58;97547.31;;;18.14;53.75
70555;BME280;58104;52.744;15.242;2023-12-22T06:50:24;97550.73;;;18.07;52.97
70555;BME280;58104;52.744;15.242;2023-12-22T06:52:49;97550.46;;;17.97;53.47
70555;BME280;58104;52.744;15.242;2023-12-22T06:55:15;97554.30;;;17.90;53.43
70555;BME280;58104;52.744;15.242;2023-12-22T06:57:43;97560.83;;;17.97;52.74
70555;BME280;58104;52.744;15.242;2023-12-22T07:00:08;97564.58;;;18.09;53.53
70555;BME280;58104;52.744;15.242;2023-12-22T07:02:31;97568.26;;;18.11;53.42
70555;BME280;58104;52.744;15.242;2023-12-22T07:07:22;97545.69;;;18.03;53.02
70555;BME280;58104;52.744;15.242;2023-12-22T07:09:47;97558.89;;;18.06;53.10
70555;BME280;58104;52.744;15.242;2023-12-22T07:12:13;97557.57;;;18.08;52.39
70555;BME280;58104;52.744;15.242;2023-12-22T07:14:38;97572.61;;;17.98;52.20
70555;BME280;58104;52.744;15.242;2023-12-22T07:17:03;97571.45;;;17.93;51.04
70555;BME280;58104;52.744;15.242;2023-12-22T07:19:28;97581.50;;;17.96;50.73
70555;BME280;58104;52.744;15.242;2023-12-22T07:22:06;97561.51;;;17.90;50.25
70555;BME280;58104;52.744;15.242;2023-12-22T07:24:19;97585.41;;;17.84;50.68
70555;BME280;58104;52.744;15.242;2023-12-22T07:26:45;97578.28;;;17.81;50.11
70555;BME280;58104;52.744;15.242;2023-12-22T07:29:10;97595.54;;;17.80;50.35
70555;BME280;58104;52.744;15.242;2023-12-22T07:31:36;97588.48;;;17.73;50.12
70555;BME280;58104;52.744;15.242;2023-12-22T07:34:01;97583.38;;;17.70;50.35
70555;BME280;58104;52.744;15.242;2023-12-22T07:36:27;97555.78;;;17.81;50.09
70555;BME280;58104;52.744;15.242;2023-12-22T07:38:52;97578.44;;;17.76;49.91
70555;BME280;58104;52.744;15.242;2023-12-22T07:41:17;97591.84;;;17.76;49.74
70555;BME280;58104;52.744;15.242;2023-12-22T07:43:42;97593.47;;;17.87;49.75
70555;BME280;58104;52.744;15.242;2023-12-22T07:46:16;97603.34;;;17.79;49.94
70555;BME280;58104;52.744;15.242;2023-12-22T07:48:33;97592.19;;;17.88;49.79
70555;BME280;58104;52.744;15.242;2023-12-22T07:50:59;97580.25;;;18.03;49.37
70555;BME280;58104;52.744;15.242;2023-12-22T07:53:24;97614.89;;;18.01;49.55
70555;BME280;58104;52.744;15.242;2023-12-22T07:55:50;97577.46;;;17.98;49.38
70555;BME280;58104;52.744;15.242;2023-12-22T07:58:15;97593.64;;;17.98;49.29
70555;BME280;58104;52.744;15.242;2023-12-22T08:00:40;97600.31;;;18.05;49.26
70555;BME280;58104;52.744;15.242;2023-12-22T08:03:06;97563.43;;;17.96;49.13
70555;BME280;58104;52.744;15.242;2023-12-22T08:05:31;97588.53;;;18.00;49.20
70555;BME280;58104;52.744;15.242;2023-12-22T08:07:57;97586.61;;;18.04;49.02
70555;BME280;58104;52.744;15.242;2023-12-22T08:12:47;97571.17;;;18.04;48.89
70555;BME280;58104;52.744;15.242;2023-12-22T08:15:15;97597.87;;;18.08;48.69
70555;BME280;58104;52.744;15.242;2023-12-22T08:17:46;97584.93;;;18.16;48.24
70555;BME280;58104;52.744;15.242;2023-12-22T08:20:04;97574.46;;;18.18;47.53
70555;BME280;58104;52.744;15.242;2023-12-22T08:22:29;97595.93;;;18.20;47.61
70555;BME280;58104;52.744;15.242;2023-12-22T08:24:54;97600.94;;;18.22;46.99
70555;BME280;58104;52.744;15.242;2023-12-22T08:27:20;97601.93;;;18.23;46.36
70555;BME280;58104;52.744;15.242;2023-12-22T08:29:45;97592.86;;;18.20;46.42
70555;BME280;58104;52.744;15.242;2023-12-22T08:32:11;97567.70;;;18.18;46.05
70555;BME280;58104;52.744;15.242;2023-12-22T08:34:36;97592.71;;;18.19;46.07
70555;BME280;58104;52.744;15.242;2023-12-22T08:37:02;97612.06;;;18.22;45.60
70555;BME280;58104;52.744;15.242;2023-12-22T08:39:27;97567.63;;;18.19;45.80
70555;BME280;58104;52.744;15.242;2023-12-22T08:41:52;97611.14;;;18.15;46.02
70555;BME280;58104;52.744;15.242;2023-12-22T08:44:18;97614.82;;;18.15;46.38
70555;BME280;58104;52.744;15.242;2023-12-22T08:46:43;97581.63;;;18.16;46.25
70555;BME280;58104;52.744;15.242;2023-12-22T08:49:08;97596.81;;;18.09;46.45
70555;BME280;58104;52.744;15.242;2023-12-22T08:51:34;97591.79;;;18.07;45.24
70555;BME280;58104;52.744;15.242;2023-12-22T08:56:25;97624.95;;;18.07;45.63
70555;BME280;58104;52.744;15.242;2023-12-22T08:58:52;97617.01;;;18.12;46.18
70555;BME280;58104;52.744;15.242;2023-12-22T09:01:16;97590.30;;;18.31;44.55
70555;BME280;58104;52.744;15.242;2023-12-22T09:03:41;97599.04;;;18.35;44.44
70555;BME280;58104;52.744;15.242;2023-12-22T09:06:06;97614.67;;;18.23;44.28
70555;BME280;58104;52.744;15.242;2023-12-22T09:08:32;97601.38;;;18.20;44.32
70555;BME280;58104;52.744;15.242;2023-12-22T09:10:57;97606.71;;;18.38;43.96
70555;BME280;58104;52.744;15.242;2023-12-22T09:13:23;97635.41;;;18.33;44.18
70555;BME280;58104;52.744;15.242;2023-12-22T09:15:48;97641.75;;;18.18;44.23
70555;BME280;58104;52.744;15.242;2023-12-22T09:18:13;97598.24;;;18.09;43.45
70555;BME280;58104;52.744;15.242;2023-12-22T09:20:39;97619.16;;;18.05;44.15
70555;BME280;58104;52.744;15.242;2023-12-22T09:23:04;97631.26;;;18.13;44.07
70555;BME280;58104;52.744;15.242;2023-12-22T09:25:30;97620.24;;;18.05;43.57
70555;BME280;58104;52.744;15.242;2023-12-22T09:27:55;97682.24;;;18.01;43.85
70555;BME280;58104;52.744;15.242;2023-12-22T09:30:21;97636.76;;;17.92;44.22
70555;BME280;58104;52.744;15.242;2023-12-22T09:32:46;97625.06;;;17.90;44.94
70555;BME280;58104;52.744;15.242;2023-12-22T09:35:11;97636.56;;;17.92;44.54
70555;BME280;58104;52.744;15.242;2023-12-22T09:37:37;97605.08;;;17.84;43.32
70555;BME280;58104;52.744;15.242;2023-12-22T09:40:04;97650.52;;;17.87;43.99
70555;BME280;58104;52.744;15.242;2023-12-22T09:42:30;97637.43;;;17.78;44.65
70555;BME280;58104;52.744;15.242;2023-12-22T09:44:53;97643.35;;;17.83;44.23
70555;BME280;58104;52.744;15.242;2023-12-22T09:47:19;97654.02;;;17.73;43.89
70555;BME280;58104;52.744;15.242;2023-12-22T09:49:44;97648.34;;;17.73;45.17
70555;BME280;58104;52.744;15.242;2023-12-22T09:52:10;97655.40;;;17.80;44.65
70555;BME280;58104;52.744;15.242;2023-12-22T09:54:37;97637.90;;;17.85;44.27
70555;BME280;58104;52.744;15.242;2023-12-22T09:57:00;97663.39;;;17.96;44.30
70555;BME280;58104;52.744;15.242;2023-12-22T09:59:32;97658.68;;;18.12;43.55
70555;BME280;58104;52.744;15.242;2023-12-22T10:01:52;97652.15;;;18.08;42.95
70555;BME280;58104;52.744;15.242;2023-12-22T10:04:16;97671.75;;;17.99;44.35
70555;BME280;58104;52.744;15.242;2023-12-22T10:06:42;97657.50;;;17.92;43.63
70555;BME280;58104;52.744;15.242;2023-12-22T10:09:07;97672.98;;;17.90;43.72
70555;BME280;58104;52.744;15.242;2023-12-22T10:11:33;97677.79;;;17.92;44.07
70555;BME280;58104;52.744;15.242;2023-12-22T10:13:59;97662.53;;;17.97;43.83
70555;BME280;58104;52.744;15.242;2023-12-22T10:16:23;97668.61;;;18.05;44.10
70555;BME280;58104;52.744;15.242;2023-12-22T10:18:49;97677.10;;;18.02;44.22
70555;BME280;58104;52.744;15.242;2023-12-22T10:21:14;97661.94;;;17.97;43.51
70555;BME280;58104;52.744;15.242;2023-12-22T10:23:39;97673.38;;;17.94;43.38
70555;BME280;58104;52.744;15.242;2023-12-22T10:26:04;97659.35;;;17.95;43.52
70555;BME280;58104;52.744;15.242;2023-12-22T10:28:30;97669.13;;;17.99;42.37
70555;BME280;58104;52.744;15.242;2023-12-22T10:30:56;97670.85;;;17.94;43.17
70555;BME280;58104;52.744;15.242;2023-12-22T10:33:21;97657.35;;;17.96;42.79
70555;BME280;58104;52.744;15.242;2023-12-22T10:35:46;97653.70;;;18.00;43.80
70555;BME280;58104;52.744;15.242;2023-12-22T10:38:14;97675.72;;;17.94;43.60
70555;BME280;58104;52.744;15.242;2023-12-22T10:40:37;97672.59;;;17.85;42.89
70555;BME280;58104;52.744;15.242;2023-12-22T10:43:04;97669.32;;;17.82;43.04
70555;BME280;58104;52.744;15.242;2023-12-22T10:45:29;97664.73;;;17.80;44.45
70555;BME280;58104;52.744;15.242;2023-12-22T10:47:54;97675.85;;;17.76;44.01
70555;BME280;58104;52.744;15.242;2023-12-22T10:50:20;97690.35;;;17.84;44.17
70555;BME280;58104;52.744;15.242;2023-12-22T10:52:49;97669.67;;;17.79;43.02
70555;BME280;58104;52.744;15.242;2023-12-22T10:55:10;97711.54;;;17.87;44.03
70555;BME280;58104;52.744;15.242;2023-12-22T10:57:35;97675.44;;;17.84;43.27
70555;BME280;58104;52.744;15.242;2023-12-22T11:00:01;97687.32;;;17.85;43.53
70555;BME280;58104;52.744;15.242;2023-12-22T11:02:28;97704.84;;;17.85;42.09
70555;BME280;58104;52.744;15.242;2023-12-22T11:04:57;97700.89;;;17.81;41.72
70555;BME280;58104;52.744;15.242;2023-12-22T11:07:19;97706.23;;;17.87;42.53
70555;BME280;58104;52.744;15.242;2023-12-22T11:09:44;97702.87;;;17.94;42.23
70555;BME280;58104;52.744;15.242;2023-12-22T11:12:08;97687.61;;;17.79;42.54
70555;BME280;58104;52.744;15.242;2023-12-22T11:14:34;97722.69;;;17.82;41.80
70555;BME280;58104;52.744;15.242;2023-12-22T11:16:59;97731.70;;;17.92;42.46
70555;BME280;58104;52.744;15.242;2023-12-22T11:19:24;97727.49;;;17.75;41.94
70555;BME280;58104;52.744;15.242;2023-12-22T11:21:50;97734.89;;;17.73;41.58
70555;BME280;58104;52.744;15.242;2023-12-22T11:24:16;97750.76;;;17.73;41.77
70555;BME280;58104;52.744;15.242;2023-12-22T11:26:41;97731.74;;;17.70;42.75
70555;BME280;58104;52.744;15.242;2023-12-22T11:29:06;97739.35;;;17.79;41.97
70555;BME280;58104;52.744;15.242;2023-12-22T11:31:31;97732.33;;;17.80;41.81
70555;BME280;58104;52.744;15.242;2023-12-22T11:33:59;97746.20;;;17.75;41.83
70555;BME280;58104;52.744;15.242;2023-12-22T11:36:23;97750.24;;;17.89;41.74
70555;BME280;58104;52.744;15.242;2023-12-22T11:38:47;97758.29;;;17.87;41.62
70555;BME280;58104;52.744;15.242;2023-12-22T11:41:15;97734.24;;;17.89;41.82
70555;BME280;58104;52.744;15.242;2023-12-22T11:43:38;97711.66;;;17.86;41.22
70555;BME280;58104;52.744;15.242;2023-12-22T11:46:04;97754.37;;;17.85;41.28
70555;BME280;58104;52.744;15.242;2023-12-22T11:48:29;97726.42;;;17.81;40.98
70555;BME280;58104;52.744;15.242;2023-12-22T11:50:54;97750.06;;;17.86;41.92
70555;BME280;58104;52.744;15.242;2023-12-22T11:53:21;97757.61;;;17.85;42.15
70555;BME280;58104;52.744;15.242;2023-12-22T11:55:56;97749.80;;;17.81;41.66
70555;BME280;58104;52.744;15.242;2023-12-22T12:00:38;97763.39;;;17.85;41.14
70555;BME280;58104;52.744;15.242;2023-12-22T12:03:06;97771.79;;;17.87;41.77
70555;BME280;58104;52.744;15.242;2023-12-22T12:05:27;97764.47;;;17.80;41.88
70555;BME280;58104;52.744;15.242;2023-12-22T12:07:52;97748.00;;;17.80;41.82
70555;BME280;58104;52.744;15.242;2023-12-22T12:12:44;97788.39;;;17.41;42.35
70555;BME280;58104;52.744;15.242;2023-12-22T12:15:10;97796.48;;;17.64;42.39
70555;BME280;58104;52.744;15.242;2023-12-22T12:17:33;97786.14;;;17.61;42.36
70555;BME280;58104;52.744;15.242;2023-12-22T12:22:25;97822.44;;;17.78;41.88
70555;BME280;58104;52.744;15.242;2023-12-22T12:24:49;97795.51;;;17.77;42.01
70555;BME280;58104;52.744;15.242;2023-12-22T12:27:18;97819.20;;;17.84;40.87
70555;BME280;58104;52.744;15.242;2023-12-22T12:29:40;97827.02;;;17.90;41.75
70555;BME280;58104;52.744;15.242;2023-12-22T12:32:06;97789.48;;;17.98;41.11
70555;BME280;58104;52.744;15.242;2023-12-22T12:34:31;97837.66;;;17.92;41.06
70555;BME280;58104;52.744;15.242;2023-12-22T12:36:56;97833.34;;;17.87;41.04
70555;BME280;58104;52.744;15.242;2023-12-22T12:39:22;97814.07;;;17.93;41.26
70555;BME280;58104;52.744;15.242;2023-12-22T12:41:53;97814.54;;;17.80;40.71
70555;BME280;58104;52.744;15.242;2023-12-22T12:44:12;97826.34;;;17.68;40.00
70555;BME280;58104;52.744;15.242;2023-12-22T12:46:39;97834.16;;;17.60;40.35
70555;BME280;58104;52.744;15.242;2023-12-22T12:49:04;97808.72;;;17.82;40.54
70555;BME280;58104;52.744;15.242;2023-12-22T12:51:28;97829.54;;;17.74;38.98
70555;BME280;58104;52.744;15.242;2023-12-22T12:53:55;97822.08;;;17.82;38.93
70555;BME280;58104;52.744;15.242;2023-12-22T12:56:19;97831.93;;;17.68;40.08
70555;BME280;58104;52.744;15.242;2023-12-22T12:58:45;97828.08;;;17.68;39.18
70555;BME280;58104;52.744;15.242;2023-12-22T13:01:10;97834.77;;;17.87;39.00